Time;durP1;ratioP1;P1;durP2;ratioP2;P2;SDS_P1;SDS_P2;PMS_P1;PMS_P2;Temp;Humidity;BMP_temperature;BMP_pressure;BME280_temperature;BME280_humidity;BME280_pressure;Samples;Min_cycle;Max_cycle;Signal;HPM_P1;HPM_P2
2021/08/12 00:00:43;;;;;;;;;;;;;;;;;;5117733;28;1393;-49
2021/08/12 00:03:08;;;;;;;;;;;;;;;;;;5117588;28;1371;-49
2021/08/12 00:05:33;;;;;;;;;;;;;;;;;;5118201;28;1580;-49
2021/08/12 00:07:58;;;;;;;;;;;;;;;;;;5119718;28;1185;-50
2021/08/12 00:10:24;;;;;;;;;;;;;;;;;;5120382;28;1913;-49
2021/08/12 00:12:49;;;;;;;;;;;;;;;;;;5117652;28;1641;-50
2021/08/12 00:15:14;;;;;;;;;;;;;;;;;;5114689;28;1514;-49
2021/08/12 00:17:39;;;;;;;;;;;;;;;;;;5120043;28;1142;-50
2021/08/12 00:20:05;;;;;;;;;;;;;;;;;;5116788;28;1475;-49
2021/08/12 00:22:30;;;;;;;;;;;;;;;;;;5121480;27;1028;-49
2021/08/12 00:24:55;;;;;;;;;;;;;;;;;;5120442;27;1637;-49
2021/08/12 00:27:20;;;;;;;;;;;;;;;;;;5119177;27;1589;-49
2021/08/12 00:29:46;;;;;;;;;;;;;;;;;;5124100;27;1972;-49
2021/08/12 00:32:11;;;;;;;;;;;;;;;;;;5123035;27;1167;-50
2021/08/12 00:34:36;;;;;;;;;;;;;;;;;;5122860;27;1549;-49
2021/08/12 00:37:04;;;;;;;;;;;;;;;;;;5116080;27;1499;-49
2021/08/12 00:39:30;;;;;;;;;;;;;;;;;;5123887;27;1382;-49
2021/08/12 00:41:55;;;;;;;;;;;;;;;;;;5121372;27;1585;-50
2021/08/12 00:44:20;;;;;;;;;;;;;;;;;;5123360;27;1182;-51
2021/08/12 00:46:45;;;;;;;;;;;;;;;;;;5123509;27;1151;-49
2021/08/12 00:49:10;;;;;;;;;;;;;;;;;;5123082;27;1965;-48
2021/08/12 00:51:36;;;;;;;;;;;;;;;;;;5120050;27;1764;-50
2021/08/12 00:54:01;;;;;;;;;;;;;;;;;;5121459;27;1143;-49
2021/08/12 00:56:26;;;;;;;;;;;;;;;;;;5121682;27;1546;-49
2021/08/12 00:58:52;;;;;;;;;;;;;;;;;;5120465;27;1173;-49
2021/08/12 01:01:17;;;;;;;;;;;;;;;;;;5111354;27;1490;-49
2021/08/12 01:03:42;;;;;;;;;;;;;;;;;;5117892;27;1174;-49
2021/08/12 01:06:07;;;;;;;;;;;;;;;;;;5121705;27;1154;-50
2021/08/12 01:08:35;;;;;;;;;;;;;;;;;;5122666;27;1158;-50
2021/08/12 01:11:07;;;;;;;;;;;;;;;;;;5118562;27;1905;-50
2021/08/12 01:13:51;;;;;;;;;;;;;;;;;;5120002;27;1571;-50
2021/08/12 01:16:17;;;;;;;;;;;;;;;;;;5119666;27;1705;-49
2021/08/12 01:18:44;;;;;;;;;;;;;;;;;;5121227;27;1227;-50
2021/08/12 01:21:12;;;;;;;;;;;;;;;;;;5119936;27;1549;-49
2021/08/12 01:26:41;;;;;;;;;;;;;;;;;;5075814;28;2045;-88
2021/08/12 01:29:07;;;;;;;;;;;;;;;;;;5086664;28;2032;-87
2021/08/12 01:31:32;;;;;;;;;;;;;;;;;;5089637;28;1917;-88
2021/08/12 01:33:57;;;;;;;;;;;;;;;;;;5089243;28;1373;-88
2021/08/12 01:36:22;;;;;;;;;;;;;;;;;;5085382;28;1680;-87
2021/08/12 01:38:47;;;;;;;;;;;;;;;;;;5091333;28;1263;-88
2021/08/12 01:41:12;;;;;;;;;;;;;;;;;;5091433;28;1345;-87
2021/08/12 01:43:38;;;;;;;;;;;;;;;;;;5086450;28;1672;-88
2021/08/12 01:46:03;;;;;;;;;;;;;;;;;;5085382;28;1464;-87
2021/08/12 01:48:28;;;;;;;;;;;;;;;;;;5090756;28;1281;-87
2021/08/12 01:50:53;;;;;;;;;;;;;;;;;;5091969;28;1905;-88
2021/08/12 01:53:19;;;;;;;;;;;;;;;;;;5090066;28;1660;-87
2021/08/12 01:55:44;;;;;;;;;;;;;;;;;;5089068;28;1113;-88
2021/08/12 01:58:13;;;;;;;;;;;;;;;;;;5089435;28;1680;-87
2021/08/12 02:00:38;;;;;;;;;;;;;;;;;;5074308;28;1156;-87
2021/08/12 02:03:03;;;;;;;;;;;;;;;;;;5087066;28;1704;-87
2021/08/12 02:05:28;;;;;;;;;;;;;;;;;;5085843;28;1653;-87
2021/08/12 02:07:53;;;;;;;;;;;;;;;;;;5086841;28;1302;-88
2021/08/12 02:10:18;;;;;;;;;;;;;;;;;;5089104;28;1914;-87
2021/08/12 02:12:44;;;;;;;;;;;;;;;;;;5090139;28;1648;-87
2021/08/12 02:15:10;;;;;;;;;;;;;;;;;;5086167;28;1365;-87
2021/08/12 02:17:35;;;;;;;;;;;;;;;;;;5087763;28;1296;-87
2021/08/12 02:20:03;;;;;;;;;;;;;;;;;;5087546;28;1665;-88
2021/08/12 02:22:29;;;;;;;;;;;;;;;;;;5088307;28;1619;-87
2021/08/12 02:24:54;;;;;;;;;;;;;;;;;;5085275;28;1511;-87
2021/08/12 02:27:20;;;;;;;;;;;;;;;;;;5087793;28;1703;-87
2021/08/12 02:29:46;;;;;;;;;;;;;;;;;;5086375;28;1918;-87
2021/08/12 02:32:13;;;;;;;;;;;;;;;;;;5086209;28;1227;-87
2021/08/12 02:34:38;;;;;;;;;;;;;;;;;;5090836;28;1156;-87
2021/08/12 02:37:04;;;;;;;;;;;;;;;;;;5088017;28;1684;-87
2021/08/12 02:39:29;;;;;;;;;;;;;;;;;;5102690;28;1164;-88
2021/08/12 02:41:54;;;;;;;;;;;;;;;;;;5085788;28;1700;-87
2021/08/12 02:44:20;;;;;;;;;;;;;;;;;;5088162;28;1451;-88
2021/08/12 02:46:45;;;;;;;;;;;;;;;;;;5089621;28;1045;-87
2021/08/12 02:49:10;;;;;;;;;;;;;;;;;;5089054;28;1278;-88
2021/08/12 02:51:35;;;;;;;;;;;;;;;;;;5086763;28;1902;-87
2021/08/12 02:54:05;;;;;;;;;;;;;;;;;;5087740;28;1136;-87
2021/08/12 02:56:30;;;;;;;;;;;;;;;;;;5085506;28;1891;-88
2021/08/12 02:58:56;;;;;;;;;;;;;;;;;;5086270;28;1484;-87
2021/08/12 03:01:21;;;;;;;;;;;;;;;;;;5090698;28;1140;-87
2021/08/12 03:03:46;;;;;;;;;;;;;;;;;;5071269;28;1291;-87
2021/08/12 03:06:12;;;;;;;;;;;;;;;;;;5088913;28;1681;-88
2021/08/12 03:08:38;;;;;;;;;;;;;;;;;;5088785;28;1301;-87
2021/08/12 03:11:03;;;;;;;;;;;;;;;;;;5089786;28;1965;-88
2021/08/12 03:13:28;;;;;;;;;;;;;;;;;;5083639;28;1690;-87
2021/08/12 03:15:53;;;;;;;;;;;;;;;;;;5087698;28;1456;-87
2021/08/12 03:18:18;;;;;;;;;;;;;;;;;;5085907;28;1305;-88
2021/08/12 03:20:44;;;;;;;;;;;;;;;;;;5087495;28;1733;-88
2021/08/12 03:23:09;;;;;;;;;;;;;;;;;;5085319;28;1162;-87
2021/08/12 03:25:34;;;;;;;;;;;;;;;;;;5082522;28;2107;-88
2021/08/12 03:27:59;;;;;;;;;;;;;;;;;;5084084;28;2001;-88
2021/08/12 03:30:25;;;;;;;;;;;;;;;;;;5085515;28;2058;-88
2021/08/12 03:32:50;;;;;;;;;;;;;;;;;;5084724;28;1214;-87
2021/08/12 03:35:15;;;;;;;;;;;;;;;;;;5102801;28;1099;-88
2021/08/12 03:37:40;;;;;;;;;;;;;;;;;;5083081;28;1529;-87
2021/08/12 03:40:06;;;;;;;;;;;;;;;;;;5084492;28;1519;-87
2021/08/12 03:42:31;;;;;;;;;;;;;;;;;;5087602;28;1497;-88
2021/08/12 03:44:56;;;;;;;;;;;;;;;;;;5084779;28;1622;-87
2021/08/12 03:47:21;;;;;;;;;;;;;;;;;;5087230;28;1275;-88
2021/08/12 03:49:46;;;;;;;;;;;;;;;;;;5087373;28;1963;-87
2021/08/12 03:52:11;;;;;;;;;;;;;;;;;;5088156;28;1555;-89
2021/08/12 03:54:37;;;;;;;;;;;;;;;;;;5088982;28;1140;-87
2021/08/12 03:57:03;;;;;;;;;;;;;;;;;;5087703;28;1553;-87
2021/08/12 03:59:28;;;;;;;;;;;;;;;;;;5087059;28;1517;-87
2021/08/12 04:01:53;;;;;;;;;;;;;;;;;;5090181;28;1287;-87
2021/08/12 04:04:18;;;;;;;;;;;;;;;;;;5094589;28;1163;-89
2021/08/12 04:06:43;;;;;;;;;;;;;;;;;;5092864;28;1333;-87
2021/08/12 04:09:09;;;;;;;;;;;;;;;;;;5088547;28;1544;-88
2021/08/12 04:11:34;;;;;;;;;;;;;;;;;;5092358;28;1910;-87
2021/08/12 04:13:59;;;;;;;;;;;;;;;;;;5093509;28;989;-87
2021/08/12 04:16:24;;;;;;;;;;;;;;;;;;5090929;28;1440;-87
2021/08/12 04:18:49;;;;;;;;;;;;;;;;;;5089720;28;1385;-88
2021/08/12 04:21:14;;;;;;;;;;;;;;;;;;5091752;28;1128;-87
2021/08/12 04:23:40;;;;;;;;;;;;;;;;;;5092526;28;1606;-87
2021/08/12 04:26:05;;;;;;;;;;;;;;;;;;5091251;28;1510;-87
2021/08/12 04:28:30;;;;;;;;;;;;;;;;;;5091361;28;1629;-87
2021/08/12 04:30:55;;;;;;;;;;;;;;;;;;5093223;28;1913;-88
2021/08/12 04:33:20;;;;;;;;;;;;;;;;;;5092724;28;1349;-87
2021/08/12 04:35:46;;;;;;;;;;;;;;;;;;5092138;28;1283;-87
2021/08/12 04:38:11;;;;;;;;;;;;;;;;;;5090885;28;1716;-87
2021/08/12 04:40:36;;;;;;;;;;;;;;;;;;5092832;28;1140;-88
2021/08/12 04:43:01;;;;;;;;;;;;;;;;;;5091190;28;1622;-87
2021/08/12 04:45:27;;;;;;;;;;;;;;;;;;5089634;28;1491;-88
2021/08/12 04:48:02;;;;;;;;;;;;;;;;;;5093597;28;1300;-87
2021/08/12 04:50:27;;;;;;;;;;;;;;;;;;5090775;28;1905;-88
2021/08/12 04:52:52;;;;;;;;;;;;;;;;;;5092879;28;1197;-87
2021/08/12 04:55:17;;;;;;;;;;;;;;;;;;5086708;28;1546;-88
2021/08/12 04:57:42;;;;;;;;;;;;;;;;;;5091278;28;1661;-88
2021/08/12 05:00:08;;;;;;;;;;;;;;;;;;5091008;28;1649;-88
2021/08/12 05:02:33;;;;;;;;;;;;;;;;;;5089429;28;1594;-87
2021/08/12 05:04:59;;;;;;;;;;;;;;;;;;5090892;28;1136;-88
2021/08/12 05:07:24;;;;;;;;;;;;;;;;;;5088298;28;1328;-88
2021/08/12 05:09:49;;;;;;;;;;;;;;;;;;5088034;28;1973;-88
2021/08/12 05:12:20;;;;;;;;;;;;;;;;;;5088762;28;1546;-87
2021/08/12 05:14:46;;;;;;;;;;;;;;;;;;5089769;28;1039;-88
2021/08/12 05:17:11;;;;;;;;;;;;;;;;;;5087454;28;1674;-87
2021/08/12 05:19:36;;;;;;;;;;;;;;;;;;5088804;28;1284;-87
2021/08/12 05:22:01;;;;;;;;;;;;;;;;;;5086345;28;1123;-88
2021/08/12 05:24:27;;;;;;;;;;;;;;;;;;5088410;28;1774;-87
2021/08/12 05:26:52;;;;;;;;;;;;;;;;;;5086269;28;1729;-88
2021/08/12 05:29:17;;;;;;;;;;;;;;;;;;5088933;28;1381;-87
2021/08/12 05:31:42;;;;;;;;;;;;;;;;;;5086656;28;1973;-88
2021/08/12 05:34:07;;;;;;;;;;;;;;;;;;5089077;28;1281;-87
2021/08/12 05:36:32;;;;;;;;;;;;;;;;;;5086949;28;1630;-87
2021/08/12 05:38:58;;;;;;;;;;;;;;;;;;5091030;28;1248;-88
2021/08/12 05:41:23;;;;;;;;;;;;;;;;;;5091865;28;1239;-88
2021/08/12 05:43:48;;;;;;;;;;;;;;;;;;5087278;28;1713;-88
2021/08/12 05:46:14;;;;;;;;;;;;;;;;;;5088602;28;1227;-87
2021/08/12 05:48:39;;;;;;;;;;;;;;;;;;5088665;28;1498;-88
2021/08/12 05:51:04;;;;;;;;;;;;;;;;;;5086071;28;1977;-87
2021/08/12 05:53:30;;;;;;;;;;;;;;;;;;5089709;28;1467;-87
2021/08/12 05:55:55;;;;;;;;;;;;;;;;;;5091520;28;1330;-88
2021/08/12 05:58:20;;;;;;;;;;;;;;;;;;5089169;28;1614;-87
2021/08/12 06:00:46;;;;;;;;;;;;;;;;;;5090226;28;1400;-88
2021/08/12 06:03:11;;;;;;;;;;;;;;;;;;5090266;28;1380;-88
2021/08/12 06:05:37;;;;;;;;;;;;;;;;;;5090091;28;1188;-88
2021/08/12 06:08:02;;;;;;;;;;;;;;;;;;5087581;28;1552;-87
2021/08/12 06:10:27;;;;;;;;;;;;;;;;;;5088496;28;1902;-88
2021/08/12 06:12:53;;;;;;;;;;;;;;;;;;5088934;28;1615;-88
2021/08/12 06:15:19;;;;;;;;;;;;;;;;;;5084577;28;1499;-88
2021/08/12 06:17:44;;;;;;;;;;;;;;;;;;5088258;28;1302;-91
2021/08/12 06:20:09;;;;;;;;;;;;;;;;;;5084536;28;1353;-88
2021/08/12 06:22:35;;;;;;;;;;;;;;;;;;5087125;28;1609;-87
2021/08/12 06:25:00;;;;;;;;;;;;;;;;;;5087731;28;1020;-86
2021/08/12 06:27:25;;;;;;;;;;;;;;;;;;5084766;28;1443;-87
2021/08/12 06:29:50;;;;;;;;;;;;;;;;;;5088158;28;1910;-87
2021/08/12 06:32:15;;;;;;;;;;;;;;;;;;5087048;28;1216;-87
2021/08/12 06:34:41;;;;;;;;;;;;;;;;;;5088198;28;1203;-89
2021/08/12 06:37:06;;;;;;;;;;;;;;;;;;5087202;28;1570;-88
2021/08/12 06:39:31;;;;;;;;;;;;;;;;;;5087550;28;1056;-89
2021/08/12 06:41:56;;;;;;;;;;;;;;;;;;5088995;28;1542;-89
2021/08/12 06:44:21;;;;;;;;;;;;;;;;;;5086515;28;1360;-88
2021/08/12 06:46:46;;;;;;;;;;;;;;;;;;5085529;28;1100;-89
2021/08/12 06:49:12;;;;;;;;;;;;;;;;;;5087561;28;1298;-88
2021/08/12 06:51:37;;;;;;;;;;;;;;;;;;5084469;28;1906;-89
2021/08/12 06:54:02;;;;;;;;;;;;;;;;;;5086151;28;1233;-87
2021/08/12 06:56:27;;;;;;;;;;;;;;;;;;5087435;28;1136;-88
2021/08/12 06:58:52;;;;;;;;;;;;;;;;;;5086481;28;1763;-88
2021/08/12 07:01:17;;;;;;;;;;;;;;;;;;5087004;28;1603;-89
2021/08/12 07:03:43;;;;;;;;;;;;;;;;;;5088920;28;1452;-91
2021/08/12 07:06:08;;;;;;;;;;;;;;;;;;5085469;28;1005;-89
2021/08/12 07:08:33;;;;;;;;;;;;;;;;;;5084193;28;1487;-88
2021/08/12 07:10:58;;;;;;;;;;;;;;;;;;5088726;28;1955;-86
2021/08/12 07:13:24;;;;;;;;;;;;;;;;;;5088153;28;1545;-87
2021/08/12 07:15:49;;;;;;;;;;;;;;;;;;5087146;28;1203;-87
2021/08/12 07:18:14;;;;;;;;;;;;;;;;;;5086990;28;1696;-87
2021/08/12 07:20:40;;;;;;;;;;;;;;;;;;5088202;28;1709;-87
2021/08/12 07:23:05;;;;;;;;;;;;;;;;;;5088760;28;1036;-87
2021/08/12 07:25:30;;;;;;;;;;;;;;;;;;5086796;28;1553;-87
2021/08/12 07:27:55;;;;;;;;;;;;;;;;;;5086445;28;1701;-87
2021/08/12 07:30:21;;;;;;;;;;;;;;;;;;5086951;28;1957;-88
2021/08/12 07:32:46;;;;;;;;;;;;;;;;;;5094121;28;1381;-87
2021/08/12 07:35:11;;;;;;;;;;;;;;;;;;5101084;28;1539;-88
2021/08/12 07:37:36;;;;;;;;;;;;;;;;;;5098215;28;1247;-86
2021/08/12 07:40:02;;;;;;;;;;;;;;;;;;5093452;28;1313;-86
2021/08/12 07:42:27;;;;;;;;;;;;;;;;;;5090721;28;1527;-87
2021/08/12 07:44:52;;;;;;;;;;;;;;;;;;5087575;28;1514;-87
2021/08/12 07:47:17;;;;;;;;;;;;;;;;;;5090440;28;1263;-84
2021/08/12 07:49:43;;;;;;;;;;;;;;;;;;5089257;28;1968;-85
2021/08/12 07:52:08;;;;;;;;;;;;;;;;;;5095657;28;1241;-85
2021/08/12 07:54:34;;;;;;;;;;;;;;;;;;5097333;28;1176;-84
2021/08/12 07:56:59;;;;;;;;;;;;;;;;;;5092095;28;1586;-85
2021/08/12 07:59:24;;;;;;;;;;;;;;;;;;5095722;28;1361;-85
2021/08/12 08:01:53;;;;;;;;;;;;;;;;;;5094957;28;1120;-85
2021/08/12 08:04:18;;;;;;;;;;;;;;;;;;5095516;28;1415;-85
2021/08/12 08:06:43;;;;;;;;;;;;;;;;;;5095135;28;1538;-84
2021/08/12 08:09:08;;;;;;;;;;;;;;;;;;5096117;28;1167;-85
2021/08/12 08:11:33;;;;;;;;;;;;;;;;;;5096241;28;1898;-85
2021/08/12 08:13:59;;;;;;;;;;;;;;;;;;5099563;28;1072;-85
2021/08/12 08:16:26;;;;;;;;;;;;;;;;;;5097402;28;1219;-85
2021/08/12 08:18:51;;;;;;;;;;;;;;;;;;5099210;28;1230;-85
2021/08/12 08:21:16;;;;;;;;;;;;;;;;;;5096645;28;1616;-85
2021/08/12 08:23:42;;;;;;;;;;;;;;;;;;5097702;28;1641;-85
2021/08/12 08:26:07;;;;;;;;;;;;;;;;;;5096426;28;1084;-85
2021/08/12 08:28:32;;;;;;;;;;;;;;;;;;5099835;28;1661;-85
2021/08/12 08:30:57;;;;;;;;;;;;;;;;;;5093713;28;1890;-85
2021/08/12 08:33:22;;;;;;;;;;;;;;;;;;5094651;28;1085;-85
2021/08/12 08:35:47;;;;;;;;;;;;;;;;;;5096608;28;1567;-85
2021/08/12 08:38:13;;;;;;;;;;;;;;;;;;5097348;28;1459;-84
2021/08/12 08:40:38;;;;;;;;;;;;;;;;;;5097271;28;1148;-84
2021/08/12 08:43:03;;;;;;;;;;;;;;;;;;5091269;28;1502;-84
2021/08/12 08:45:29;;;;;;;;;;;;;;;;;;5095440;28;1172;-83
2021/08/12 08:47:55;;;;;;;;;;;;;;;;;;5097203;28;1535;-82
2021/08/12 08:50:20;;;;;;;;;;;;;;;;;;5114340;28;1921;-83
2021/08/12 08:52:46;;;;;;;;;;;;;;;;;;5113777;28;1445;-84
2021/08/12 08:55:20;;;;;;;;;;;;;;;;;;5091137;28;1332;-84
2021/08/12 08:57:45;;;;;;;;;;;;;;;;;;5086162;28;1512;-84
2021/08/12 09:00:10;;;;;;;;;;;;;;;;;;5085304;28;1332;-84
2021/08/12 09:02:35;;;;;;;;;;;;;;;;;;5087878;28;1089;-84
2021/08/12 09:05:01;;;;;;;;;;;;;;;;;;5089278;28;1506;-84
2021/08/12 09:07:26;;;;;;;;;;;;;;;;;;5090064;28;1364;-84
2021/08/12 09:09:51;;;;;;;;;;;;;;;;;;5087283;28;1965;-84
2021/08/12 09:12:16;;;;;;;;;;;;;;;;;;5086298;28;1632;-84
2021/08/12 09:14:42;;;;;;;;;;;;;;;;;;5088915;28;1524;-84
2021/08/12 09:17:19;;;;;;;;;;;;;;;;;;5087899;28;1356;-84
2021/08/12 09:20:03;;;;;;;;;;;;;;;;;;5089348;28;1716;-84
2021/08/12 09:22:28;;;;;;;;;;;;;;;;;;5090364;28;1264;-84
2021/08/12 09:24:54;;;;;;;;;;;;;;;;;;5090840;28;1172;-84
2021/08/12 09:27:22;;;;;;;;;;;;;;;;;;5087797;28;1584;-84
2021/08/12 09:30:07;;;;;;;;;;;;;;;;;;5084262;28;1910;-84
2021/08/12 09:32:45;;;;;;;;;;;;;;;;;;5089293;28;1117;-84
2021/08/12 09:35:10;;;;;;;;;;;;;;;;;;5089794;28;1139;-84
2021/08/12 09:37:35;;;;;;;;;;;;;;;;;;5088382;28;1585;-84
2021/08/12 09:40:03;;;;;;;;;;;;;;;;;;5090852;28;1136;-84
2021/08/12 09:42:28;;;;;;;;;;;;;;;;;;5088300;28;1625;-84
2021/08/12 09:44:53;;;;;;;;;;;;;;;;;;5089788;28;1439;-84
2021/08/12 09:47:18;;;;;;;;;;;;;;;;;;5090030;28;1258;-84
2021/08/12 09:49:45;;;;;;;;;;;;;;;;;;5085161;28;1898;-84
2021/08/12 09:52:16;;;;;;;;;;;;;;;;;;5085797;28;1132;-84
2021/08/12 09:54:41;;;;;;;;;;;;;;;;;;5087168;28;1369;-84
2021/08/12 09:57:13;;;;;;;;;;;;;;;;;;5083111;28;1552;-84
2021/08/12 09:59:45;;;;;;;;;;;;;;;;;;5088734;28;1349;-84
2021/08/12 10:02:11;;;;;;;;;;;;;;;;;;5085966;28;1078;-84
2021/08/12 10:04:37;;;;;;;;;;;;;;;;;;5070633;28;1564;-84
2021/08/12 10:07:02;;;;;;;;;;;;;;;;;;5084412;28;1652;-84
2021/08/12 10:09:27;;;;;;;;;;;;;;;;;;5102153;28;1338;-85
2021/08/12 10:11:52;;;;;;;;;;;;;;;;;;5083673;28;1977;-84
2021/08/12 10:14:18;;;;;;;;;;;;;;;;;;5103830;28;1194;-84
2021/08/12 10:16:43;;;;;;;;;;;;;;;;;;5087042;28;1270;-84
2021/08/12 10:19:09;;;;;;;;;;;;;;;;;;5086552;28;1432;-84
2021/08/12 10:21:38;;;;;;;;;;;;;;;;;;5088872;28;1550;-85
2021/08/12 10:24:03;;;;;;;;;;;;;;;;;;5089177;28;1386;-84
2021/08/12 10:26:29;;;;;;;;;;;;;;;;;;5093014;28;1013;-84
2021/08/12 10:28:56;;;;;;;;;;;;;;;;;;5091732;28;1684;-85
2021/08/12 10:31:25;;;;;;;;;;;;;;;;;;5105515;28;1918;-85
2021/08/12 10:33:50;;;;;;;;;;;;;;;;;;5090419;28;1239;-84
2021/08/12 10:36:16;;;;;;;;;;;;;;;;;;5092492;28;1172;-84
2021/08/12 10:38:41;;;;;;;;;;;;;;;;;;5092995;28;1506;-84
2021/08/12 10:41:06;;;;;;;;;;;;;;;;;;5093876;28;1483;-84
2021/08/12 10:43:31;;;;;;;;;;;;;;;;;;5093960;28;1576;-85
2021/08/12 10:45:57;;;;;;;;;;;;;;;;;;5100259;28;1195;-84
2021/08/12 10:48:24;;;;;;;;;;;;;;;;;;5095416;28;1388;-84
2021/08/12 10:51:06;;;;;;;;;;;;;;;;;;5093945;28;1910;-84
2021/08/12 10:53:32;;;;;;;;;;;;;;;;;;5108939;28;1579;-84
2021/08/12 10:55:58;;;;;;;;;;;;;;;;;;5096162;28;1740;-84
2021/08/12 10:58:25;;;;;;;;;;;;;;;;;;5095201;28;1548;-84
2021/08/12 11:01:01;;;;;;;;;;;;;;;;;;5093814;28;1202;-85
2021/08/12 11:03:32;;;;;;;;;;;;;;;;;;5092348;28;1245;-84
2021/08/12 11:06:13;;;;;;;;;;;;;;;;;;5090678;28;1502;-86
2021/08/12 11:08:48;;;;;;;;;;;;;;;;;;5091160;28;1369;-85
2021/08/12 11:11:13;;;;;;;;;;;;;;;;;;5087508;28;1972;-84
2021/08/12 11:13:38;;;;;;;;;;;;;;;;;;5088397;28;1601;-84
2021/08/12 11:16:04;;;;;;;;;;;;;;;;;;5085532;28;1612;-84
2021/08/12 11:18:48;;;;;;;;;;;;;;;;;;5082375;28;1600;-84
2021/08/12 11:21:32;;;;;;;;;;;;;;;;;;5084149;28;1174;-85
2021/08/12 11:24:07;;;;;;;;;;;;;;;;;;5048305;28;1106133;-84
2021/08/12 11:26:41;;;;;;;;;;;;;;;;;;5086207;28;1531;-84
2021/08/12 11:29:07;;;;;;;;;;;;;;;;;;5084240;28;1565;-86
2021/08/12 11:31:32;;;;;;;;;;;;;;;;;;5088247;28;1918;-85
2021/08/12 11:33:59;;;;;;;;;;;;;;;;;;5088703;28;1116;-85
2021/08/12 11:36:24;;;;;;;;;;;;;;;;;;5090899;28;1330;-85
2021/08/12 11:38:51;;;;;;;;;;;;;;;;;;5093945;28;1601;-85
2021/08/12 11:41:16;;;;;;;;;;;;;;;;;;5095183;28;1159;-85
2021/08/12 11:43:41;;;;;;;;;;;;;;;;;;5083230;28;1533;-86
2021/08/12 11:46:10;;;;;;;;;;;;;;;;;;5079542;28;1038;-85
2021/08/12 11:48:35;;;;;;;;;;;;;;;;;;5081874;28;1373;-85
2021/08/12 11:51:01;;;;;;;;;;;;;;;;;;5080962;28;1969;-85
2021/08/12 11:53:37;;;;;;;;;;;;;;;;;;5081538;28;1574;-85
2021/08/12 11:56:19;;;;;;;;;;;;;;;;;;5082233;28;1060;-85
2021/08/12 11:58:45;;;;;;;;;;;;;;;;;;5084799;28;1726;-85
2021/08/12 12:01:11;;;;;;;;;;;;;;;;;;5081535;28;1343;-84
2021/08/12 12:03:36;;;;;;;;;;;;;;;;;;5097419;28;1098;-84
2021/08/12 12:06:01;;;;;;;;;;;;;;;;;;5080970;28;1596;-84
2021/08/12 12:08:29;;;;;;;;;;;;;;;;;;5081377;28;1574;-85
2021/08/12 12:10:54;;;;;;;;;;;;;;;;;;5082025;28;1879;-84
2021/08/12 12:13:21;;;;;;;;;;;;;;;;;;5081497;28;1538;-84
2021/08/12 12:15:47;;;;;;;;;;;;;;;;;;5083999;28;1113;-84
2021/08/12 12:18:13;;;;;;;;;;;;;;;;;;5085007;28;1356;-84
2021/08/12 12:20:41;;;;;;;;;;;;;;;;;;5084810;28;1549;-84
2021/08/12 12:23:07;;;;;;;;;;;;;;;;;;5086804;28;1025;-84
2021/08/12 12:25:33;;;;;;;;;;;;;;;;;;5088883;28;1180;-84
2021/08/12 12:27:58;;;;;;;;;;;;;;;;;;5090273;28;1537;-84
2021/08/12 12:30:24;;;;;;;;;;;;;;;;;;5092259;28;1905;-84
2021/08/12 12:33:05;;;;;;;;;;;;;;;;;;5090366;28;1104;-84
2021/08/12 12:35:33;;;;;;;;;;;;;;;;;;5091987;28;1234;-84
2021/08/12 12:37:59;;;;;;;;;;;;;;;;;;5087423;28;1499;-84
2021/08/12 12:40:25;;;;;;;;;;;;;;;;;;5088585;28;1104;-84
2021/08/12 12:42:50;;;;;;;;;;;;;;;;;;5088868;28;1500;-84
2021/08/12 12:45:16;;;;;;;;;;;;;;;;;;5107557;28;1166;-84
2021/08/12 12:47:41;;;;;;;;;;;;;;;;;;5089213;28;1538;-84
2021/08/12 12:50:15;;;;;;;;;;;;;;;;;;5091240;28;1980;-84
2021/08/12 12:52:53;;;;;;;;;;;;;;;;;;5090548;28;1230;-84
2021/08/12 12:55:18;;;;;;;;;;;;;;;;;;5090521;28;1617;-84
2021/08/12 12:57:46;;;;;;;;;;;;;;;;;;5089830;28;1551;-84
2021/08/12 13:00:11;;;;;;;;;;;;;;;;;;5090362;28;1318;-84
2021/08/12 13:02:36;;;;;;;;;;;;;;;;;;5091375;28;1119;-83
2021/08/12 13:05:02;;;;;;;;;;;;;;;;;;5092352;28;1309;-84
2021/08/12 13:07:27;;;;;;;;;;;;;;;;;;5089662;28;1512;-85
2021/08/12 13:09:52;;;;;;;;;;;;;;;;;;5085888;28;1969;-85
2021/08/12 13:12:24;;;;;;;;;;;;;;;;;;5087896;28;1622;-85
2021/08/12 13:14:49;;;;;;;;;;;;;;;;;;5088250;28;1388;-85
2021/08/12 13:17:35;;;;;;;;;;;;;;;;;;5104893;28;1256;-85
2021/08/12 13:20:12;;;;;;;;;;;;;;;;;;5086687;28;1558;-85
2021/08/12 13:22:38;;;;;;;;;;;;;;;;;;5087547;28;1128;-86
2021/08/12 13:25:09;;;;;;;;;;;;;;;;;;5089587;28;1251;-85
2021/08/12 13:28:01;;;;;;;;;;;;;;;;;;5085283;28;1538;-86
2021/08/12 13:30:36;;;;;;;;;;;;;;;;;;5082911;28;1909;-86
2021/08/12 13:33:01;;;;;;;;;;;;;;;;;;5069235;28;1852;-84
2021/08/12 13:35:27;;;;;;;;;;;;;;;;;;5086938;28;1174;-84
2021/08/12 13:37:52;;;;;;;;;;;;;;;;;;5085949;28;1602;-84
2021/08/12 13:40:17;;;;;;;;;;;;;;;;;;5087300;28;1313;-84
2021/08/12 13:42:43;;;;;;;;;;;;;;;;;;5085819;28;1561;-85
2021/08/12 13:45:08;;;;;;;;;;;;;;;;;;5088072;28;1242;-85
2021/08/12 13:47:33;;;;;;;;;;;;;;;;;;5089862;28;1356;-85
2021/08/12 13:49:58;;;;;;;;;;;;;;;;;;5091363;28;1957;-85
2021/08/12 13:52:23;;;;;;;;;;;;;;;;;;5089709;28;1629;-85
2021/08/12 13:54:49;;;;;;;;;;;;;;;;;;5087763;28;1124;-85
2021/08/12 13:57:14;;;;;;;;;;;;;;;;;;5087611;28;1560;-85
2021/08/12 13:59:39;;;;;;;;;;;;;;;;;;5091538;28;1112;-85
2021/08/12 14:02:04;;;;;;;;;;;;;;;;;;5088852;28;1103;-85
2021/08/12 14:04:29;;;;;;;;;;;;;;;;;;5090432;28;1277;-84
2021/08/12 14:06:55;;;;;;;;;;;;;;;;;;5090604;28;1483;-85
2021/08/12 14:09:20;;;;;;;;;;;;;;;;;;5089609;28;1288;-84
2021/08/12 14:11:46;;;;;;;;;;;;;;;;;;5085873;28;1963;-84
2021/08/12 14:14:11;;;;;;;;;;;;;;;;;;5085274;28;1207;-84
2021/08/12 14:16:37;;;;;;;;;;;;;;;;;;5087018;28;1152;-84
2021/08/12 14:19:02;;;;;;;;;;;;;;;;;;5087750;28;1279;-85
2021/08/12 14:21:27;;;;;;;;;;;;;;;;;;5084376;28;1549;-84
2021/08/12 14:23:53;;;;;;;;;;;;;;;;;;5086915;28;1112;-84
2021/08/12 14:26:19;;;;;;;;;;;;;;;;;;5086192;28;1238;-85
2021/08/12 14:28:47;;;;;;;;;;;;;;;;;;5085374;28;1570;-84
2021/08/12 14:31:12;;;;;;;;;;;;;;;;;;5087036;28;1910;-85
2021/08/12 14:33:38;;;;;;;;;;;;;;;;;;5086211;28;1193;-84
2021/08/12 14:36:03;;;;;;;;;;;;;;;;;;5081919;28;1606;-85
2021/08/12 14:38:29;;;;;;;;;;;;;;;;;;5085853;28;1290;-84
2021/08/12 14:40:56;;;;;;;;;;;;;;;;;;5086293;28;1096;-84
2021/08/12 14:43:22;;;;;;;;;;;;;;;;;;5084053;28;1563;-84
2021/08/12 14:45:47;;;;;;;;;;;;;;;;;;5083047;28;1124;-85
2021/08/12 14:48:12;;;;;;;;;;;;;;;;;;5086847;28;1368;-84
2021/08/12 14:50:37;;;;;;;;;;;;;;;;;;5088073;28;1901;-85
2021/08/12 14:53:02;;;;;;;;;;;;;;;;;;5082051;28;1620;-85
2021/08/12 14:55:28;;;;;;;;;;;;;;;;;;5085175;28;1089;-85
2021/08/12 14:57:53;;;;;;;;;;;;;;;;;;5084055;28;1641;-85
2021/08/12 15:00:18;;;;;;;;;;;;;;;;;;5082518;28;1583;-86
2021/08/12 15:02:43;;;;;;;;;;;;;;;;;;5084474;28;1225;-85
2021/08/12 15:05:09;;;;;;;;;;;;;;;;;;5081664;28;1584;-85
2021/08/12 15:07:34;;;;;;;;;;;;;;;;;;5083357;28;1318;-85
2021/08/12 15:09:59;;;;;;;;;;;;;;;;;;5086071;28;2004;-85
2021/08/12 15:12:24;;;;;;;;;;;;;;;;;;5084343;28;1558;-84
2021/08/12 15:14:49;;;;;;;;;;;;;;;;;;5089479;28;1160;-84
2021/08/12 15:17:15;;;;;;;;;;;;;;;;;;5088880;28;1246;-84
2021/08/12 15:19:40;;;;;;;;;;;;;;;;;;5088874;28;1597;-84
2021/08/12 15:22:06;;;;;;;;;;;;;;;;;;5091114;28;1089;-84
2021/08/12 15:24:31;;;;;;;;;;;;;;;;;;5105649;28;1053;-84
2021/08/12 15:26:56;;;;;;;;;;;;;;;;;;5087072;28;1605;-84
2021/08/12 15:29:21;;;;;;;;;;;;;;;;;;5090269;28;1181;-84
2021/08/12 15:31:46;;;;;;;;;;;;;;;;;;5088676;28;1910;-84
2021/08/12 15:34:12;;;;;;;;;;;;;;;;;;5088905;28;1579;-84
2021/08/12 15:36:37;;;;;;;;;;;;;;;;;;4976985;28;1016;-84
2021/08/12 15:39:02;;;;;;;;;;;;;;;;;;5088687;28;1364;-84
2021/08/12 15:41:27;;;;;;;;;;;;;;;;;;5093293;28;1290;-84
2021/08/12 15:43:53;;;;;;;;;;;;;;;;;;5088610;28;1615;-84
2021/08/12 15:46:20;;;;;;;;;;;;;;;;;;5091979;28;1153;-84
2021/08/12 15:48:46;;;;;;;;;;;;;;;;;;5091105;28;1397;-85
2021/08/12 15:51:14;;;;;;;;;;;;;;;;;;5088646;28;1955;-84
2021/08/12 15:53:39;;;;;;;;;;;;;;;;;;5076899;28;1666;-84
2021/08/12 15:56:04;;;;;;;;;;;;;;;;;;5097127;28;1032;-84
2021/08/12 15:58:30;;;;;;;;;;;;;;;;;;5093901;28;1551;-84
2021/08/12 16:00:55;;;;;;;;;;;;;;;;;;5093384;28;1148;-85
2021/08/12 16:03:20;;;;;;;;;;;;;;;;;;5094147;28;1363;-85
2021/08/12 16:05:45;;;;;;;;;;;;;;;;;;5090641;28;1480;-85
2021/08/12 16:08:14;;;;;;;;;;;;;;;;;;5109498;28;1378;-84
2021/08/12 16:10:39;;;;;;;;;;;;;;;;;;5096729;28;1969;-84
2021/08/12 16:13:04;;;;;;;;;;;;;;;;;;5096775;28;1702;-84
2021/08/12 16:15:30;;;;;;;;;;;;;;;;;;5095677;28;1277;-84
2021/08/12 16:17:55;;;;;;;;;;;;;;;;;;5095178;28;1368;-85
2021/08/12 16:20:21;;;;;;;;;;;;;;;;;;5091503;28;1597;-84
2021/08/12 16:22:46;;;;;;;;;;;;;;;;;;5091408;28;1155;-85
2021/08/12 16:25:11;;;;;;;;;;;;;;;;;;5090761;28;1453;-85
2021/08/12 16:27:36;;;;;;;;;;;;;;;;;;5092824;28;1606;-85
2021/08/12 16:30:02;;;;;;;;;;;;;;;;;;5092496;28;1914;-85
2021/08/12 16:32:27;;;;;;;;;;;;;;;;;;5093055;28;1105;-85
2021/08/12 16:34:52;;;;;;;;;;;;;;;;;;5095037;28;1179;-85
2021/08/12 16:37:19;;;;;;;;;;;;;;;;;;5091632;28;1389;-86
2021/08/12 16:39:44;;;;;;;;;;;;;;;;;;5090145;28;1593;-86
2021/08/12 16:42:09;;;;;;;;;;;;;;;;;;5089966;28;1602;-86
2021/08/12 16:44:34;;;;;;;;;;;;;;;;;;5092174;28;1167;-85
2021/08/12 16:46:59;;;;;;;;;;;;;;;;;;5092327;28;1315;-85
2021/08/12 16:49:25;;;;;;;;;;;;;;;;;;5090807;28;1546;-84
2021/08/12 16:51:50;;;;;;;;;;;;;;;;;;5092584;28;1902;-84
2021/08/12 16:54:15;;;;;;;;;;;;;;;;;;5093193;28;1167;-84
2021/08/12 16:56:40;;;;;;;;;;;;;;;;;;5092115;28;1582;-84
2021/08/12 16:59:05;;;;;;;;;;;;;;;;;;5092126;28;1234;-84